KBTL/BTL METAR and TAF weather

Enter ICAO airport designator
Station Type Date Time Source
KBTL METAR 2020/04/04 20:53 UTC NOAA

KBTL 042053Z 28007KT 10SM OVC008 07/05 A3004 RMK AO2 SLP178 60000 T00670050 55002 $


Station Type Date Time Source
KBTL Decoded METAR 2020/04/04 20:53 UTC NOAA

W.K.KELLOGG REGIONAL AIRPORT, MI, United States (KBTL) 42-18N 085-15W 290M
Apr 04, 2020 - 04:53 PM EDT / 2020.04.04 2053 UTC
Wind: from the W (280 degrees) at 8 MPH (7 KT):0
Visibility: 10 mile(s):0
Sky conditions: overcast
Temperature: 44.1 F (6.7 C)
Dew Point: 41.0 F (5.0 C)
Relative Humidity: 88%
Pressure (altimeter): 30.04 in. Hg (1017 hPa)
Pressure tendency: 0.01 inches (0.2 hPa) lower than three hours ago
ob: KBTL 042053Z 28007KT 10SM OVC008 07/05 A3004 RMK AO2 SLP178 60000 T00670050 55002
cycle: 21

Station Type Date Time Source
KBTL TAF 2020/04/04 21:04 UTC NOAA

TAF
AMD KBTL 042102Z 0421/0518 29008KT P6SM VCSH OVC005
FM042300 32008KT P6SM OVC012
FM050000 32010KT P6SM BKN040
FM050700 01006KT 4SM BR SCT045
FM051200 01003KT 5SM BR OVC100

Example: see airport list